createdAt,value
2018-11-05T00:00:43.164Z,10.40
2018-11-05T00:01:43.131Z,10.90
2018-11-05T00:02:43.116Z,11.90
2018-11-05T00:03:43.103Z,10.70
2018-11-05T00:04:43.091Z,10.60
2018-11-05T00:05:43.108Z,9.00
2018-11-05T00:06:43.070Z,10.50
2018-11-05T00:07:43.068Z,10.00
2018-11-05T00:08:43.046Z,9.60
2018-11-05T00:09:43.036Z,10.20
2018-11-05T00:10:43.048Z,11.20
2018-11-05T00:11:43.015Z,9.70
2018-11-05T00:12:43.004Z,10.10
2018-11-05T00:13:42.997Z,8.80
2018-11-05T00:14:42.990Z,10.30
2018-11-05T00:15:42.995Z,10.50
2018-11-05T00:16:42.957Z,10.20
2018-11-05T00:17:42.946Z,9.50
2018-11-05T00:18:42.937Z,9.50
2018-11-05T00:19:42.927Z,8.70
2018-11-05T00:20:42.921Z,8.60
2018-11-05T00:21:42.924Z,9.30
2018-11-05T00:22:42.892Z,8.00
2018-11-05T00:23:42.878Z,8.70
2018-11-05T00:24:42.875Z,7.60
2018-11-05T00:25:42.859Z,8.90
2018-11-05T00:26:42.876Z,9.20
2018-11-05T00:27:42.837Z,9.00
2018-11-05T00:28:42.824Z,9.70
2018-11-05T00:29:42.814Z,9.30
2018-11-05T00:30:42.805Z,9.10
2018-11-05T00:31:42.821Z,8.10
2018-11-05T00:32:42.780Z,9.90
2018-11-05T00:33:42.773Z,10.60
2018-11-05T00:34:42.757Z,9.30
2018-11-05T00:35:42.746Z,9.70
2018-11-05T00:36:42.757Z,9.40
2018-11-05T00:37:42.727Z,10.80
2018-11-05T00:38:42.711Z,10.90
2018-11-05T00:39:42.704Z,11.30
2018-11-05T00:40:42.693Z,10.60
2018-11-05T00:41:42.734Z,9.20
2018-11-05T00:42:42.668Z,9.60
2018-11-05T00:43:42.659Z,9.80
2018-11-05T00:44:42.647Z,10.50
2018-11-05T00:45:42.734Z,8.80
2018-11-05T00:46:42.647Z,9.40
2018-11-05T00:47:42.612Z,11.30
2018-11-05T00:48:42.602Z,9.70
2018-11-05T00:49:42.590Z,10.10
2018-11-05T00:50:42.578Z,10.60
2018-11-05T00:51:42.599Z,10.00
2018-11-05T00:52:42.555Z,9.10
2018-11-05T00:53:42.547Z,9.90
2018-11-05T00:54:42.535Z,8.80
2018-11-05T00:55:42.531Z,8.90
2018-11-05T00:56:42.533Z,9.90
2018-11-05T00:57:42.503Z,12.00
2018-11-05T00:58:42.489Z,11.70
2018-11-05T00:59:42.477Z,11.90
2018-11-05T01:00:42.468Z,10.90
2018-11-05T01:01:42.478Z,10.50
2018-11-05T01:02:42.446Z,10.20
2018-11-05T01:03:42.436Z,10.20
2018-11-05T01:04:42.422Z,10.50
2018-11-05T01:05:42.409Z,10.90
2018-11-05T01:06:42.423Z,10.30
2018-11-05T01:07:42.389Z,9.70
2018-11-05T01:08:42.383Z,10.10
2018-11-05T01:09:42.374Z,10.20
2018-11-05T01:10:42.354Z,10.20
2018-11-05T01:11:42.367Z,10.90
2018-11-05T01:12:42.332Z,10.90
2018-11-05T01:13:42.321Z,9.60
2018-11-05T01:14:42.311Z,9.30
2018-11-05T01:15:42.301Z,10.90
2018-11-05T01:16:42.333Z,10.70
2018-11-05T01:17:42.279Z,9.80
2018-11-05T01:18:42.264Z,10.20
2018-11-05T01:19:42.260Z,9.30
2018-11-05T01:20:42.254Z,10.40
2018-11-05T01:21:42.257Z,10.10
2018-11-05T01:22:42.222Z,9.60
2018-11-05T01:23:42.216Z,9.10
2018-11-05T01:24:42.202Z,9.20
2018-11-05T01:25:42.188Z,9.90
2018-11-05T01:26:42.202Z,9.30
2018-11-05T01:27:42.165Z,9.20
2018-11-05T01:28:42.160Z,9.40
2018-11-05T01:29:42.144Z,10.50
2018-11-05T01:30:42.134Z,10.60
2018-11-05T01:31:42.145Z,9.90
2018-11-05T01:32:42.109Z,10.40
2018-11-05T01:33:42.122Z,10.60
2018-11-05T01:34:42.090Z,9.70
2018-11-05T01:35:42.075Z,10.40
2018-11-05T01:36:42.089Z,10.00
2018-11-05T01:37:42.053Z,10.00
2018-11-05T01:38:42.042Z,9.90
2018-11-05T01:39:42.030Z,10.80
2018-11-05T01:40:42.022Z,10.20
2018-11-05T01:41:42.040Z,10.40
2018-11-05T01:42:41.999Z,10.70
2018-11-05T01:43:41.985Z,11.20
2018-11-05T01:44:41.975Z,10.40
2018-11-05T01:45:41.966Z,10.60
2018-11-05T01:46:41.979Z,11.00
2018-11-05T01:47:41.947Z,10.70
2018-11-05T01:48:41.930Z,11.30
2018-11-05T01:49:41.918Z,9.90
2018-11-05T01:50:41.907Z,10.40
2018-11-05T01:51:41.920Z,10.60
2018-11-05T01:52:41.886Z,11.10
2018-11-05T01:53:41.879Z,10.30
2018-11-05T01:54:41.861Z,9.30
2018-11-05T01:55:41.851Z,8.90
2018-11-05T01:56:41.864Z,9.50
2018-11-05T01:57:41.828Z,10.40
2018-11-05T01:58:41.817Z,10.60
2018-11-05T01:59:41.807Z,10.10
2018-11-05T02:00:41.798Z,9.90
2018-11-05T02:01:41.808Z,10.50
2018-11-05T02:02:41.777Z,10.40
2018-11-05T02:03:41.764Z,11.00
2018-11-05T02:04:41.753Z,9.80
2018-11-05T02:05:41.741Z,10.00
2018-11-05T02:06:41.760Z,10.00
2018-11-05T02:07:41.717Z,10.50
2018-11-05T02:08:41.708Z,9.90
2018-11-05T02:09:41.696Z,10.70
2018-11-05T02:10:41.683Z,10.40
2018-11-05T02:11:41.696Z,9.70
2018-11-05T02:12:41.666Z,10.90
2018-11-05T02:13:41.657Z,10.50
2018-11-05T02:14:41.641Z,10.00
2018-11-05T02:15:41.627Z,10.10
2018-11-05T02:16:41.645Z,9.60
2018-11-05T02:17:41.607Z,10.40
2018-11-05T02:18:41.596Z,9.60
2018-11-05T02:19:41.584Z,9.30
2018-11-05T02:20:41.576Z,10.30
2018-11-05T02:21:41.585Z,10.30
2018-11-05T02:22:41.555Z,10.30
2018-11-05T02:23:41.540Z,9.70
2018-11-05T02:24:41.528Z,10.50
2018-11-05T02:25:41.518Z,10.80
2018-11-05T02:26:41.534Z,10.50
2018-11-05T02:27:41.494Z,11.60
2018-11-05T02:28:41.484Z,11.60
2018-11-05T02:29:41.497Z,11.20
2018-11-05T02:30:41.460Z,10.90
2018-11-05T02:31:41.455Z,10.90
2018-11-05T02:32:41.470Z,10.50
2018-11-05T02:33:41.428Z,10.90
2018-11-05T02:34:41.418Z,11.80
2018-11-05T02:35:41.404Z,11.70
2018-11-05T02:36:41.395Z,10.70
2018-11-05T02:37:41.406Z,11.90
2018-11-05T02:38:41.374Z,10.90
2018-11-05T02:39:41.364Z,9.90
2018-11-05T02:40:41.363Z,10.40
2018-11-05T02:41:41.346Z,11.50
2018-11-05T02:42:41.358Z,10.50
2018-11-05T02:43:41.315Z,12.10
2018-11-05T02:44:41.313Z,12.00
2018-11-05T02:45:41.296Z,11.10
2018-11-05T02:46:41.283Z,11.60
2018-11-05T02:47:41.305Z,11.60
2018-11-05T02:48:41.258Z,11.40
2018-11-05T02:49:41.247Z,11.30
2018-11-05T02:50:41.237Z,10.50
2018-11-05T02:51:41.232Z,11.40
2018-11-05T02:52:41.249Z,12.00
2018-11-05T02:53:41.221Z,11.30
2018-11-05T02:54:41.192Z,10.70
2018-11-05T02:55:41.182Z,10.50
2018-11-05T02:56:41.169Z,10.30
2018-11-05T02:57:41.185Z,10.60
2018-11-05T02:58:41.150Z,11.30
2018-11-05T02:59:41.137Z,10.50
2018-11-05T03:00:41.124Z,10.60
2018-11-05T03:01:41.117Z,11.20
2018-11-05T03:02:41.128Z,10.50
2018-11-05T03:03:41.098Z,11.50
2018-11-05T03:04:41.088Z,11.90
2018-11-05T03:05:41.079Z,10.10
2018-11-05T03:06:41.060Z,10.50
2018-11-05T03:07:41.075Z,11.50
2018-11-05T03:08:41.039Z,11.90
2018-11-05T03:09:41.026Z,12.00
2018-11-05T03:10:41.014Z,12.50
2018-11-05T03:11:41.011Z,11.60
2018-11-05T03:12:41.018Z,12.10
2018-11-05T03:13:40.980Z,13.10
2018-11-05T03:14:40.970Z,12.20
2018-11-05T03:15:40.959Z,12.00
2018-11-05T03:16:40.953Z,11.50
2018-11-05T03:17:40.958Z,11.80
2018-11-05T03:18:40.928Z,12.00
2018-11-05T03:19:40.914Z,11.60
2018-11-05T03:20:40.902Z,12.30
2018-11-05T03:21:40.893Z,12.30
2018-11-05T03:22:40.919Z,11.70
2018-11-05T03:23:40.871Z,12.40
2018-11-05T03:24:40.857Z,11.80
2018-11-05T03:25:40.848Z,13.10
2018-11-05T03:26:40.838Z,13.50
2018-11-05T03:27:40.848Z,12.70
2018-11-05T03:28:40.822Z,12.80
2018-11-05T03:29:40.809Z,12.80
2018-11-05T03:30:40.806Z,13.20
2018-11-05T03:31:40.780Z,12.60
2018-11-05T03:32:40.793Z,13.30
2018-11-05T03:33:40.760Z,13.30
2018-11-05T03:34:40.754Z,12.40
2018-11-05T03:35:40.812Z,13.20
2018-11-05T03:36:40.726Z,12.70
2018-11-05T03:37:40.737Z,12.20
2018-11-05T03:38:40.706Z,12.30
2018-11-05T03:39:40.693Z,12.50
2018-11-05T03:40:40.680Z,13.30
2018-11-05T03:41:40.671Z,12.60
2018-11-05T03:42:40.689Z,12.60
2018-11-05T03:43:40.649Z,12.70
2018-11-05T03:44:40.637Z,13.50
2018-11-05T03:45:40.624Z,12.50
2018-11-05T03:46:40.614Z,13.00
2018-11-05T03:47:40.624Z,13.50
2018-11-05T03:48:40.597Z,12.80
2018-11-05T03:49:40.578Z,13.10
2018-11-05T03:50:40.568Z,11.50
2018-11-05T03:51:40.557Z,11.70
2018-11-05T03:52:40.569Z,12.60
2018-11-05T03:53:40.536Z,13.80
2018-11-05T03:54:40.528Z,13.10
2018-11-05T03:55:40.596Z,13.20
2018-11-05T03:56:40.672Z,11.90
2018-11-05T03:57:40.522Z,11.60
2018-11-05T03:58:40.491Z,11.50
2018-11-05T03:59:40.478Z,12.50
2018-11-05T04:00:40.456Z,12.20
2018-11-05T04:01:40.447Z,12.30
2018-11-05T04:02:40.458Z,12.30
2018-11-05T04:03:40.424Z,12.60
2018-11-05T04:04:40.412Z,12.00
2018-11-05T04:05:40.411Z,13.20
2018-11-05T04:06:40.391Z,12.40
2018-11-05T04:07:40.403Z,12.30
2018-11-05T04:08:40.372Z,12.40
2018-11-05T04:09:40.357Z,12.00
2018-11-05T04:10:40.345Z,12.50
2018-11-05T04:11:40.341Z,12.60
2018-11-05T04:12:40.346Z,13.00
2018-11-05T04:13:40.313Z,12.40
2018-11-05T04:14:40.302Z,12.90
2018-11-05T04:15:40.332Z,12.30
2018-11-05T04:16:40.283Z,11.90
2018-11-05T04:17:40.306Z,12.40
2018-11-05T04:18:40.257Z,13.10
2018-11-05T04:19:40.244Z,13.10
2018-11-05T04:20:40.231Z,12.90
2018-11-05T04:21:40.222Z,14.60
2018-11-05T04:22:40.242Z,12.80
2018-11-05T04:23:40.199Z,13.40
2018-11-05T04:24:40.188Z,12.10
2018-11-05T04:25:40.177Z,11.70
2018-11-05T04:26:40.167Z,12.70
2018-11-05T04:27:40.224Z,12.50
2018-11-05T04:28:40.186Z,13.10
2018-11-05T04:29:40.134Z,13.90
2018-11-05T04:30:40.120Z,13.40
2018-11-05T04:31:40.109Z,11.80
2018-11-05T04:32:40.105Z,12.30
2018-11-05T04:33:40.118Z,12.50
2018-11-05T04:34:40.078Z,12.80
2018-11-05T04:35:40.066Z,13.40
2018-11-05T04:36:40.053Z,12.90
2018-11-05T04:37:40.062Z,13.90
2018-11-05T04:38:40.055Z,12.90
2018-11-05T04:39:40.022Z,13.20
2018-11-05T04:40:40.013Z,12.20
2018-11-05T04:41:40.002Z,12.60
2018-11-05T04:42:39.990Z,11.70
2018-11-05T04:43:40.001Z,12.70
2018-11-05T04:44:39.965Z,12.70
2018-11-05T04:45:39.954Z,11.60
2018-11-05T04:46:39.943Z,13.10
2018-11-05T04:47:39.941Z,12.10
2018-11-05T04:48:39.945Z,12.00
2018-11-05T04:49:39.909Z,12.90
2018-11-05T04:50:39.920Z,11.60
2018-11-05T04:51:39.892Z,12.10
2018-11-05T04:52:39.878Z,11.50
2018-11-05T04:53:39.893Z,12.50
2018-11-05T04:54:39.854Z,12.40
2018-11-05T04:55:39.842Z,11.80
2018-11-05T04:56:39.836Z,12.10
2018-11-05T04:57:39.818Z,12.80
2018-11-05T04:58:39.832Z,12.70
2018-11-05T04:59:39.805Z,12.60
2018-11-05T05:00:39.785Z,12.70
2018-11-05T05:01:39.781Z,12.10
2018-11-05T05:02:39.762Z,12.50
2018-11-05T05:03:39.777Z,12.90
2018-11-05T05:04:39.740Z,13.10
2018-11-05T05:05:39.740Z,13.40
2018-11-05T05:06:39.720Z,14.10
2018-11-05T05:07:39.710Z,13.60
2018-11-05T05:08:39.721Z,12.70
2018-11-05T05:09:39.687Z,12.70
2018-11-05T05:10:39.673Z,13.00
2018-11-05T05:11:39.673Z,12.50
2018-11-05T05:12:39.651Z,16.10
2018-11-05T05:13:39.666Z,14.10
2018-11-05T05:14:39.632Z,13.80
2018-11-05T05:15:39.617Z,14.00
2018-11-05T05:16:39.617Z,12.30
2018-11-05T05:17:39.601Z,12.90
2018-11-05T05:18:39.610Z,12.90
2018-11-05T05:19:39.573Z,12.80
2018-11-05T05:20:39.562Z,12.90
2018-11-05T05:21:39.558Z,12.90
2018-11-05T05:22:39.628Z,11.90
2018-11-05T05:23:39.559Z,12.40
2018-11-05T05:24:39.517Z,12.40
2018-11-05T05:25:39.508Z,13.00
2018-11-05T05:26:39.495Z,13.60
2018-11-05T05:27:39.485Z,12.80
2018-11-05T05:28:39.497Z,14.50
2018-11-05T05:29:39.470Z,13.20
2018-11-05T05:30:39.453Z,14.20
2018-11-05T05:31:39.439Z,12.70
2018-11-05T05:32:39.431Z,13.80
2018-11-05T05:33:39.549Z,14.00
2018-11-05T05:34:39.406Z,13.40
2018-11-05T05:35:39.400Z,13.30
2018-11-05T05:36:39.385Z,13.50
2018-11-05T05:37:39.381Z,12.50
2018-11-05T05:38:39.384Z,12.20
2018-11-05T05:39:39.367Z,11.40
2018-11-05T05:40:39.388Z,13.40
2018-11-05T05:41:39.382Z,14.70
2018-11-05T05:42:39.319Z,12.90
2018-11-05T05:43:39.410Z,13.30
2018-11-05T05:44:39.295Z,13.80
2018-11-05T05:45:39.293Z,13.50
2018-11-05T05:46:39.272Z,14.00
2018-11-05T05:47:39.271Z,14.00
2018-11-05T05:48:39.274Z,13.80
2018-11-05T05:49:39.237Z,13.80
2018-11-05T05:50:39.236Z,14.00
2018-11-05T05:51:39.214Z,13.70
2018-11-05T05:52:39.204Z,13.40
2018-11-05T05:53:39.220Z,13.50
2018-11-05T05:54:39.186Z,14.50
2018-11-05T05:55:39.171Z,14.80
2018-11-05T05:56:39.165Z,15.50
2018-11-05T05:57:39.149Z,16.60
2018-11-05T05:58:39.160Z,16.70
2018-11-05T05:59:39.151Z,14.20
2018-11-05T06:00:39.116Z,15.40
2018-11-05T06:01:39.105Z,15.00
2018-11-05T06:02:39.097Z,15.00
2018-11-05T06:03:39.107Z,13.90
2018-11-05T06:04:39.075Z,15.70
2018-11-05T06:05:39.063Z,15.10
2018-11-05T06:06:39.138Z,13.80
2018-11-05T06:07:39.038Z,14.60
2018-11-05T06:08:39.038Z,14.50
2018-11-05T06:09:39.042Z,14.70
2018-11-05T06:10:39.002Z,13.70
2018-11-05T06:11:38.994Z,13.50
2018-11-05T06:12:38.982Z,14.50
2018-11-05T06:13:38.972Z,14.00
2018-11-05T06:14:38.983Z,13.80
2018-11-05T06:15:38.984Z,14.20
2018-11-05T06:16:38.941Z,13.70
2018-11-05T06:17:38.926Z,13.80
2018-11-05T06:18:38.916Z,15.00
2018-11-05T06:19:38.929Z,14.30
2018-11-05T06:20:38.893Z,14.80
2018-11-05T06:21:38.912Z,14.20
2018-11-05T06:22:38.875Z,13.70
2018-11-05T06:23:38.863Z,14.10
2018-11-05T06:24:38.876Z,14.50
2018-11-05T06:25:38.842Z,13.70
2018-11-05T06:26:38.825Z,13.20
2018-11-05T06:27:38.819Z,15.00
2018-11-05T06:28:38.864Z,14.80
2018-11-05T06:29:38.817Z,14.60
2018-11-05T06:30:38.781Z,17.00
2018-11-05T06:31:38.769Z,15.40
2018-11-05T06:32:38.865Z,14.30
2018-11-05T06:33:38.756Z,14.50
2018-11-05T06:34:38.762Z,13.60
2018-11-05T06:35:38.731Z,13.80
2018-11-05T06:36:38.714Z,13.60
2018-11-05T06:37:38.716Z,14.90
2018-11-05T06:38:38.693Z,14.20
2018-11-05T06:39:38.719Z,15.50
2018-11-05T06:40:38.672Z,15.20
2018-11-05T06:41:38.722Z,14.40
2018-11-05T06:42:38.650Z,14.90
2018-11-05T06:43:38.635Z,14.70
2018-11-05T06:44:38.703Z,19.40
2018-11-05T06:45:38.618Z,16.20
2018-11-05T06:46:38.602Z,14.20
2018-11-05T06:47:38.598Z,15.10
2018-11-05T06:48:38.607Z,14.10
2018-11-05T06:49:38.595Z,13.40
2018-11-05T06:50:38.558Z,14.20
2018-11-05T06:51:38.547Z,14.00
2018-11-05T06:52:38.545Z,14.40
2018-11-05T06:53:38.530Z,15.30
2018-11-05T06:54:38.540Z,14.60
2018-11-05T06:55:38.503Z,15.10
2018-11-05T06:56:38.491Z,14.00
2018-11-05T06:57:38.503Z,14.80
2018-11-05T06:58:38.472Z,16.50
2018-11-05T06:59:38.486Z,16.60
2018-11-05T07:00:38.445Z,15.40
2018-11-05T07:01:38.433Z,15.40
2018-11-05T07:02:38.513Z,16.00
2018-11-05T07:03:38.412Z,14.80
2018-11-05T07:04:38.425Z,16.80
2018-11-05T07:05:38.414Z,16.00
2018-11-05T07:06:38.383Z,16.60
2018-11-05T07:07:38.369Z,16.20
2018-11-05T07:08:38.357Z,15.40
2018-11-05T07:09:38.372Z,14.70
2018-11-05T07:10:38.335Z,15.00
2018-11-05T07:11:38.325Z,15.00
2018-11-05T07:12:38.313Z,15.40
2018-11-05T07:13:38.310Z,16.40
2018-11-05T07:14:38.314Z,15.40
2018-11-05T07:15:38.280Z,15.20
2018-11-05T07:16:38.269Z,14.10
2018-11-05T07:17:38.257Z,14.30
2018-11-05T07:18:38.563Z,15.30
2018-11-05T07:19:38.269Z,14.00
2018-11-05T07:20:38.222Z,14.30
2018-11-05T07:21:38.212Z,15.70
2018-11-05T07:22:38.200Z,16.40
2018-11-05T07:23:38.189Z,15.00
2018-11-05T07:24:38.209Z,14.80
2018-11-05T07:25:38.174Z,15.10
2018-11-05T07:26:38.259Z,15.30
2018-11-05T07:27:38.219Z,14.70
2018-11-05T07:28:38.136Z,15.30
2018-11-05T07:29:38.148Z,15.60
2018-11-05T07:30:38.112Z,17.30
2018-11-05T07:31:38.104Z,16.60
2018-11-05T07:32:38.088Z,15.80
2018-11-05T07:33:38.100Z,16.40
2018-11-05T07:34:38.092Z,15.80
2018-11-05T07:35:38.056Z,15.40
2018-11-05T07:36:38.046Z,16.90
2018-11-05T07:37:38.039Z,15.30
2018-11-05T07:38:38.032Z,15.00
2018-11-05T07:39:38.035Z,15.00
2018-11-05T07:40:38.020Z,15.70
2018-11-05T07:41:37.988Z,16.20
2018-11-05T07:42:37.979Z,15.90
2018-11-05T07:43:37.972Z,15.80
2018-11-05T07:44:37.981Z,15.40
2018-11-05T07:45:37.946Z,15.40
2018-11-05T07:46:37.933Z,15.40
2018-11-05T07:47:37.929Z,15.40
2018-11-05T07:48:37.909Z,15.40
2018-11-05T07:49:37.924Z,15.40
2018-11-05T07:50:37.899Z,16.20
2018-11-05T07:51:38.142Z,15.00
2018-11-05T07:52:37.878Z,15.70
2018-11-05T07:53:37.856Z,15.70
2018-11-05T07:54:37.876Z,15.70
2018-11-05T07:55:37.848Z,15.80
2018-11-05T07:56:37.928Z,14.90
2018-11-05T07:57:37.812Z,14.40
2018-11-05T07:58:37.829Z,14.80
2018-11-05T07:59:37.813Z,16.70
2018-11-05T08:00:37.814Z,15.70
2018-11-05T08:01:37.797Z,16.20
2018-11-05T08:02:37.818Z,15.40
2018-11-05T08:03:37.752Z,15.70
2018-11-05T08:04:37.738Z,15.70
2018-11-05T08:05:37.723Z,14.70
2018-11-05T08:06:37.712Z,15.70
2018-11-05T08:07:37.725Z,15.20
2018-11-05T08:08:37.690Z,14.30
2018-11-05T08:09:37.686Z,15.50
2018-11-05T08:10:37.665Z,15.40
2018-11-05T08:11:37.655Z,15.20
2018-11-05T08:12:37.644Z,15.80
2018-11-05T08:13:37.659Z,15.50
2018-11-05T08:14:37.622Z,15.60
2018-11-05T08:15:37.613Z,14.70
2018-11-05T08:16:37.600Z,14.90
2018-11-05T08:17:37.586Z,14.30
2018-11-05T08:18:37.605Z,16.10
2018-11-05T08:19:37.565Z,17.30
2018-11-05T08:20:37.555Z,15.40
2018-11-05T08:21:37.559Z,15.70
2018-11-05T08:22:37.533Z,15.70
2018-11-05T08:23:37.544Z,15.80
2018-11-05T08:24:37.512Z,16.20
2018-11-05T08:25:37.498Z,15.00
2018-11-05T08:26:37.486Z,14.70
2018-11-05T08:27:37.475Z,14.40
2018-11-05T08:28:37.516Z,15.00
2018-11-05T08:29:37.453Z,14.20
2018-11-05T08:30:37.441Z,15.10
2018-11-05T08:31:37.433Z,14.70
2018-11-05T08:32:37.420Z,14.60
2018-11-05T08:33:37.408Z,14.80
2018-11-05T08:34:37.430Z,14.90
2018-11-05T08:35:37.394Z,14.60
2018-11-05T08:36:37.374Z,14.80
2018-11-05T08:37:37.362Z,14.80
2018-11-05T08:38:37.419Z,15.70
2018-11-05T08:39:40.252Z,15.70
2018-11-05T08:40:37.331Z,14.80
2018-11-05T08:41:37.319Z,14.60
2018-11-05T08:42:37.307Z,15.00
2018-11-05T08:43:37.297Z,14.60
2018-11-05T08:44:37.348Z,15.00
2018-11-05T08:45:37.283Z,14.90
2018-11-05T08:46:37.283Z,14.70
2018-11-05T08:47:37.259Z,14.10
2018-11-05T08:48:37.243Z,14.90
2018-11-05T08:49:37.237Z,14.70
2018-11-05T08:50:37.293Z,14.40
2018-11-05T08:51:37.621Z,15.30
2018-11-05T08:52:37.202Z,15.20
2018-11-05T08:53:37.184Z,15.60
2018-11-05T08:54:37.173Z,15.70
2018-11-05T08:55:37.188Z,15.10
2018-11-05T08:56:37.164Z,15.40
2018-11-05T08:57:37.204Z,15.50
2018-11-05T08:58:37.129Z,16.20
2018-11-05T08:59:37.120Z,15.10
2018-11-05T09:00:37.131Z,15.00
2018-11-05T09:01:37.096Z,14.70
2018-11-05T09:02:37.088Z,15.40
2018-11-05T09:03:37.081Z,16.20
2018-11-05T09:04:37.144Z,14.90
2018-11-05T09:05:37.075Z,16.20
2018-11-05T09:06:37.039Z,15.90
2018-11-05T09:07:37.033Z,16.00
2018-11-05T09:08:37.021Z,15.70
2018-11-05T09:09:37.014Z,15.90
2018-11-05T09:10:37.316Z,15.00
2018-11-05T09:11:37.282Z,16.00
2018-11-05T09:12:36.972Z,16.20
2018-11-05T09:13:36.961Z,14.60
2018-11-05T09:14:36.955Z,14.60
2018-11-05T09:15:36.962Z,15.30
2018-11-05T09:16:36.929Z,14.70
2018-11-05T09:17:36.921Z,14.60
2018-11-05T09:18:37.689Z,13.50
2018-11-05T09:19:36.897Z,15.40
2018-11-05T09:20:40.684Z,15.00
2018-11-05T09:21:36.893Z,15.10
2018-11-05T09:22:36.860Z,14.30
2018-11-05T09:23:36.856Z,14.80
2018-11-05T09:24:36.846Z,14.30
2018-11-05T09:25:36.854Z,15.30
2018-11-05T09:26:36.829Z,15.50
2018-11-05T09:27:36.834Z,16.00
2018-11-05T09:28:36.798Z,15.60
2018-11-05T09:29:36.787Z,14.90
2018-11-05T09:30:36.795Z,13.80
2018-11-05T09:31:36.775Z,14.60
2018-11-05T09:32:36.749Z,14.90
2018-11-05T09:33:36.741Z,15.10
2018-11-05T09:34:36.732Z,15.50
2018-11-05T09:35:36.742Z,15.70
2018-11-05T09:36:36.707Z,15.10
2018-11-05T09:37:36.698Z,14.90
2018-11-05T09:38:36.684Z,14.10
2018-11-05T09:39:36.671Z,15.20
2018-11-05T09:40:40.679Z,15.30
2018-11-05T09:41:36.651Z,14.90
2018-11-05T09:42:36.645Z,14.70
2018-11-05T09:43:36.639Z,14.70
2018-11-05T09:44:36.616Z,14.80
2018-11-05T09:45:36.628Z,14.50
2018-11-05T09:46:36.616Z,14.50
2018-11-05T09:47:36.581Z,14.70
2018-11-05T09:48:36.572Z,15.40
2018-11-05T09:49:36.601Z,15.00
2018-11-05T09:50:36.629Z,14.40
2018-11-05T09:51:36.856Z,14.60
2018-11-05T09:52:36.525Z,14.70
2018-11-05T09:53:36.516Z,14.90
2018-11-05T09:54:36.529Z,14.50
2018-11-05T09:55:36.576Z,14.30
2018-11-05T09:56:36.488Z,15.00
2018-11-05T09:57:36.469Z,15.70
2018-11-05T09:58:36.458Z,15.20
2018-11-05T09:59:36.461Z,15.00
2018-11-05T10:00:36.442Z,14.40
2018-11-05T10:01:36.450Z,14.80
2018-11-05T10:02:36.451Z,14.60
2018-11-05T10:03:36.704Z,15.10
2018-11-05T10:04:36.715Z,15.00
2018-11-05T10:05:36.426Z,15.20
2018-11-05T10:06:36.397Z,14.40
2018-11-05T10:07:36.362Z,15.10
2018-11-05T10:08:36.347Z,15.30
2018-11-05T10:09:36.435Z,15.20
2018-11-05T10:10:36.328Z,14.50
2018-11-05T10:11:36.335Z,15.30
2018-11-05T10:12:36.303Z,15.10
2018-11-05T10:13:36.296Z,15.90
2018-11-05T10:14:36.284Z,14.40
2018-11-05T10:15:36.302Z,15.00
2018-11-05T10:16:36.258Z,14.70
2018-11-05T10:17:36.250Z,14.60
2018-11-05T10:18:36.234Z,15.00
2018-11-05T10:19:36.274Z,14.80
2018-11-05T10:20:36.224Z,14.10
2018-11-05T10:21:36.229Z,16.40
2018-11-05T10:22:36.191Z,16.20
2018-11-05T10:23:36.204Z,15.60
2018-11-05T10:24:36.194Z,16.00
2018-11-05T10:25:36.168Z,16.30
2018-11-05T10:26:36.169Z,14.70
2018-11-05T10:27:36.145Z,14.90
2018-11-05T10:28:36.127Z,15.20
2018-11-05T10:29:36.112Z,14.80
2018-11-05T10:30:36.107Z,14.70
2018-11-05T10:31:36.113Z,14.90
2018-11-05T10:32:36.121Z,14.70
2018-11-05T10:33:36.185Z,14.50
2018-11-05T10:34:36.056Z,14.00
2018-11-05T10:35:36.046Z,14.60
2018-11-05T10:36:36.062Z,14.80
2018-11-05T10:37:36.022Z,15.00
2018-11-05T10:38:36.032Z,14.70
2018-11-05T10:39:36.001Z,14.20
2018-11-05T10:40:36.108Z,14.60
2018-11-05T10:41:41.124Z,14.50
2018-11-05T10:42:35.967Z,15.30
2018-11-05T10:43:35.962Z,15.20
2018-11-05T10:44:35.947Z,15.10
2018-11-05T10:45:35.936Z,14.90
2018-11-05T10:46:35.949Z,15.80
2018-11-05T10:47:35.909Z,15.30
2018-11-05T10:48:35.900Z,15.40
2018-11-05T10:49:35.887Z,14.60
2018-11-05T10:50:35.911Z,15.00
2018-11-05T10:51:35.933Z,14.90
2018-11-05T10:52:35.860Z,14.60
2018-11-05T10:53:35.845Z,15.40
2018-11-05T10:54:35.831Z,14.60
2018-11-05T10:55:35.862Z,14.80
2018-11-05T10:56:35.839Z,14.90
2018-11-05T10:57:35.801Z,15.20
2018-11-05T10:58:35.786Z,15.00
2018-11-05T10:59:35.783Z,14.90
2018-11-05T11:00:35.764Z,14.30
2018-11-05T11:01:35.779Z,14.90
2018-11-05T11:02:35.743Z,14.60
2018-11-05T11:03:35.835Z,15.20
2018-11-05T11:04:35.757Z,14.40
2018-11-05T11:05:35.709Z,15.00
2018-11-05T11:06:35.737Z,13.80
2018-11-05T11:07:35.687Z,14.40
2018-11-05T11:08:35.702Z,15.90
2018-11-05T11:09:35.726Z,14.30
2018-11-05T11:10:35.658Z,14.30
2018-11-05T11:11:35.673Z,15.30
2018-11-05T11:12:35.637Z,13.60
2018-11-05T11:13:35.619Z,14.90
2018-11-05T11:14:35.620Z,14.30
2018-11-05T11:15:35.598Z,14.30
2018-11-05T11:16:35.611Z,15.30
2018-11-05T11:17:35.577Z,14.50
2018-11-05T11:18:35.564Z,14.50
2018-11-05T11:19:35.571Z,15.00
2018-11-05T11:20:35.540Z,14.70
2018-11-05T11:21:35.553Z,14.90
2018-11-05T11:22:35.518Z,14.20
2018-11-05T11:23:35.508Z,14.00
2018-11-05T11:24:35.497Z,14.40
2018-11-05T11:25:35.503Z,14.20
2018-11-05T11:26:35.499Z,14.00
2018-11-05T11:27:35.490Z,13.60
2018-11-05T11:28:35.502Z,14.60
2018-11-05T11:29:35.440Z,14.40
2018-11-05T11:30:35.428Z,14.40
2018-11-05T11:31:35.455Z,14.00
2018-11-05T11:32:35.407Z,13.50
2018-11-05T11:33:35.396Z,14.10
2018-11-05T11:34:35.387Z,14.30
2018-11-05T11:35:35.378Z,15.20
2018-11-05T11:36:35.460Z,14.80
2018-11-05T11:37:35.350Z,14.00
2018-11-05T11:38:35.339Z,13.50
2018-11-05T11:39:35.361Z,14.20
2018-11-05T11:40:35.315Z,14.00
2018-11-05T11:41:35.307Z,14.00
2018-11-05T11:42:35.319Z,14.40
2018-11-05T11:43:35.292Z,14.80
2018-11-05T11:44:35.280Z,14.00
2018-11-05T11:45:35.259Z,14.50
2018-11-05T11:46:35.274Z,14.00
2018-11-05T11:47:35.261Z,13.30
2018-11-05T11:48:35.229Z,14.80
2018-11-05T11:49:35.219Z,14.20
2018-11-05T11:50:35.215Z,14.50
2018-11-05T11:51:35.246Z,14.10
2018-11-05T11:52:35.203Z,15.10
2018-11-05T11:53:35.280Z,15.30
2018-11-05T11:54:35.167Z,13.80
2018-11-05T11:55:35.148Z,14.20
2018-11-05T11:56:35.167Z,14.00
2018-11-05T11:57:35.155Z,13.20
2018-11-05T11:58:35.125Z,13.30
2018-11-05T11:59:35.130Z,14.00
2018-11-05T12:00:35.095Z,14.00
2018-11-05T12:01:35.137Z,13.90
2018-11-05T12:02:35.122Z,14.40
2018-11-05T12:03:35.067Z,13.40
2018-11-05T12:04:35.054Z,14.00
2018-11-05T12:05:35.045Z,13.60
2018-11-05T12:06:35.030Z,13.20
2018-11-05T12:07:35.066Z,13.50
2018-11-05T12:08:35.006Z,13.30
2018-11-05T12:09:34.996Z,13.40
2018-11-05T12:10:34.985Z,12.80
2018-11-05T12:11:34.969Z,13.10
2018-11-05T12:12:35.006Z,13.40
2018-11-05T12:13:34.949Z,13.60
2018-11-05T12:14:35.025Z,13.10
2018-11-05T12:15:34.926Z,13.20
2018-11-05T12:16:34.916Z,13.40
2018-11-05T12:17:34.931Z,13.40
2018-11-05T12:18:34.891Z,13.30
2018-11-05T12:19:34.904Z,13.20
2018-11-05T12:20:34.873Z,13.90
2018-11-05T12:21:34.856Z,13.80
2018-11-05T12:22:34.873Z,13.30
2018-11-05T12:23:34.834Z,13.20
2018-11-05T12:24:34.887Z,12.80
2018-11-05T12:25:34.818Z,13.10
2018-11-05T12:26:34.807Z,13.50
2018-11-05T12:27:34.825Z,13.30
2018-11-05T12:28:34.785Z,13.70
2018-11-05T12:29:34.768Z,12.90
2018-11-05T12:30:34.763Z,12.40
2018-11-05T12:31:34.754Z,12.60
2018-11-05T12:32:34.762Z,13.00
2018-11-05T12:33:34.726Z,13.20
2018-11-05T12:34:34.714Z,12.90
2018-11-05T12:35:34.701Z,13.40
2018-11-05T12:36:34.701Z,13.50
2018-11-05T12:37:34.703Z,12.60
2018-11-05T12:38:34.714Z,13.00
2018-11-05T12:39:34.656Z,13.40
2018-11-05T12:40:34.649Z,13.40
2018-11-05T12:41:34.645Z,13.70
2018-11-05T12:42:34.648Z,13.00
2018-11-05T12:43:34.621Z,12.60
2018-11-05T12:44:34.649Z,12.90
2018-11-05T12:45:34.597Z,13.00
2018-11-05T12:46:34.578Z,12.80
2018-11-05T12:47:34.592Z,13.70
2018-11-05T12:48:34.556Z,13.00
2018-11-05T12:49:34.564Z,14.10
2018-11-05T12:50:34.556Z,13.30
2018-11-05T12:51:34.525Z,13.10
2018-11-05T12:52:34.540Z,13.40
2018-11-05T12:53:34.501Z,13.00
2018-11-05T12:54:34.495Z,13.90